Terminal Aerodrome Forecast
Issued by NWS

Home | Current Version | Previous Version | Text Only | Print | Product List | Glossary On
Versions: 1 2 3 4 5 6 7 8 9 10 11 12 13 14 15 16 17 18 19 20 21 22 23 24 25 26 27 28
000
FTUS42 KRAH 250538
TAFINT
TAF
KINT 250538Z 2506/2606 03012G22KT 3SM -RA BKN008 OVC015
      WS020/05045KT
      TEMPO 2506/2507 6SM BR SCT008 BKN060 OVC080
     FM251000 02010KT 5SM -RADZ OVC006
     FM251700 02008KT P6SM BKN012 OVC020
     FM260100 VRB03KT 6SM BR BKN025=

USA.gov is the U.S. government's official web portal to all federal, state and local government web resources and services.